createdAt,value
2023-10-24T00:00:16.185Z,96366.00
2023-10-24T00:02:43.232Z,96369.00
2023-10-24T00:05:10.332Z,96362.00
2023-10-24T00:07:37.251Z,96367.00
2023-10-24T00:10:04.767Z,96364.00
2023-10-24T00:12:32.142Z,96363.00
2023-10-24T00:14:59.157Z,96360.00
2023-10-24T00:17:26.672Z,96370.00
2023-10-24T00:19:54.005Z,96370.00
2023-10-24T00:22:20.941Z,96372.00
2023-10-24T00:24:48.021Z,96353.00
2023-10-24T00:27:14.832Z,96351.00
2023-10-24T00:29:41.711Z,96341.00
2023-10-24T00:32:08.810Z,96336.00
2023-10-24T00:34:35.728Z,96335.00
2023-10-24T00:37:02.921Z,96338.00
2023-10-24T00:39:29.912Z,96338.00
2023-10-24T00:41:56.972Z,96330.00
2023-10-24T00:44:23.870Z,96331.00
2023-10-24T00:46:50.772Z,96330.00
2023-10-24T00:49:18.675Z,96322.00
2023-10-24T00:51:45.773Z,96330.00
2023-10-24T00:54:13.314Z,96337.00
2023-10-24T00:56:43.839Z,96332.00
2023-10-24T00:59:10.761Z,96345.00
2023-10-24T01:01:37.763Z,96345.00
2023-10-24T01:04:05.376Z,96340.00
2023-10-24T01:06:32.339Z,96348.00
2023-10-24T01:08:59.272Z,96355.00
2023-10-24T01:11:28.264Z,96355.00
2023-10-24T01:13:57.321Z,96346.00
2023-10-24T01:16:24.282Z,96357.00
2023-10-24T01:18:51.223Z,96363.00
2023-10-24T01:21:18.044Z,96369.00
2023-10-24T01:23:44.888Z,96378.00
2023-10-24T01:26:15.464Z,96370.00
2023-10-24T01:28:42.567Z,96356.00
2023-10-24T01:31:09.606Z,96364.00
2023-10-24T01:33:36.642Z,96361.00
2023-10-24T01:36:03.813Z,96363.00
2023-10-24T01:38:30.653Z,96358.00
2023-10-24T01:40:57.499Z,96359.00
2023-10-24T01:43:24.301Z,96337.00
2023-10-24T01:45:51.183Z,96342.00
2023-10-24T01:48:20.186Z,96331.00
2023-10-24T01:50:46.994Z,96366.00
2023-10-24T01:53:13.836Z,96363.00
2023-10-24T01:55:40.738Z,96360.00
2023-10-24T01:58:07.545Z,96368.00
2023-10-24T02:00:34.385Z,96366.00
2023-10-24T02:03:01.269Z,96346.00
2023-10-24T02:05:28.290Z,96348.00
2023-10-24T02:07:55.115Z,96350.00
2023-10-24T02:10:22.313Z,96326.00
2023-10-24T02:12:49.222Z,96315.00
2023-10-24T02:15:16.077Z,96311.00
2023-10-24T02:17:43.074Z,96324.00
2023-10-24T02:20:11.029Z,96308.00
2023-10-24T02:22:37.893Z,96301.00
2023-10-24T02:25:05.386Z,96309.00
2023-10-24T02:27:33.192Z,96297.00
2023-10-24T02:30:00.017Z,96293.00
2023-10-24T02:32:27.124Z,96307.00
2023-10-24T02:34:53.980Z,96310.00
2023-10-24T02:37:20.881Z,96331.00
2023-10-24T02:39:47.717Z,96329.00
2023-10-24T02:42:14.509Z,96330.00
2023-10-24T02:44:41.555Z,96326.00
2023-10-24T02:47:08.585Z,96324.00
2023-10-24T02:49:35.517Z,96314.00
2023-10-24T02:52:03.296Z,96306.00
2023-10-24T02:54:30.112Z,96315.00
2023-10-24T02:56:56.928Z,96312.00
2023-10-24T02:59:23.945Z,96320.00
2023-10-24T03:01:50.838Z,96314.00
2023-10-24T03:04:17.690Z,96330.00
2023-10-24T03:06:44.528Z,96331.00
2023-10-24T03:09:11.315Z,96325.00
2023-10-24T03:11:38.142Z,96321.00
2023-10-24T03:14:05.011Z,96330.00
2023-10-24T03:16:32.737Z,96326.00
2023-10-24T03:19:00.986Z,96326.00
2023-10-24T03:21:27.859Z,96326.00
2023-10-24T03:23:54.834Z,96330.00
2023-10-24T03:26:21.977Z,96334.00
2023-10-24T03:28:48.883Z,96344.00
2023-10-24T03:31:15.821Z,96355.00
2023-10-24T03:33:42.714Z,96341.00
2023-10-24T03:36:15.893Z,96346.00
2023-10-24T03:38:42.708Z,96352.00
2023-10-24T03:41:09.555Z,96328.00
2023-10-24T03:43:36.747Z,96314.00
2023-10-24T03:46:07.918Z,96322.00
2023-10-24T03:48:35.092Z,96322.00
2023-10-24T03:51:02.097Z,96316.00
2023-10-24T03:53:29.337Z,96319.00
2023-10-24T03:55:59.788Z,96314.00
2023-10-24T03:58:27.794Z,96326.00
2023-10-24T04:00:55.062Z,96327.00
2023-10-24T04:03:23.123Z,96338.00
2023-10-24T04:05:50.129Z,96341.00
2023-10-24T04:08:16.987Z,96323.00
2023-10-24T04:10:43.849Z,96320.00
2023-10-24T04:13:10.759Z,96312.00
2023-10-24T04:15:37.880Z,96314.00
2023-10-24T04:18:05.192Z,96310.00
2023-10-24T04:20:32.634Z,96303.00
2023-10-24T04:23:04.190Z,96302.00
2023-10-24T04:25:31.995Z,96295.00
2023-10-24T04:27:59.832Z,96287.00
2023-10-24T04:30:28.078Z,96306.00
2023-10-24T04:32:56.289Z,96302.00
2023-10-24T04:35:23.278Z,96296.00
2023-10-24T04:37:50.166Z,96302.00
2023-10-24T04:40:17.504Z,96298.00
2023-10-24T04:42:45.026Z,96295.00
2023-10-24T04:45:11.962Z,96291.00
2023-10-24T04:47:38.799Z,96283.00
2023-10-24T04:50:08.024Z,96293.00
2023-10-24T04:52:34.879Z,96291.00
2023-10-24T04:55:01.762Z,96289.00
2023-10-24T04:57:28.564Z,96284.00
2023-10-24T04:59:55.410Z,96279.00
2023-10-24T05:02:22.225Z,96297.00
2023-10-24T05:04:49.118Z,96297.00
2023-10-24T05:07:15.992Z,96294.00
2023-10-24T05:09:42.839Z,96291.00
2023-10-24T05:12:09.719Z,96278.00
2023-10-24T05:14:36.558Z,96272.00
2023-10-24T05:17:05.983Z,96267.00
2023-10-24T05:19:33.302Z,96267.00
2023-10-24T05:22:00.270Z,96257.00
2023-10-24T05:24:27.082Z,96241.00
2023-10-24T05:26:53.915Z,96242.00
2023-10-24T05:29:21.444Z,96246.00
2023-10-24T05:31:48.357Z,96234.00
2023-10-24T05:34:15.264Z,96242.00
2023-10-24T05:36:42.061Z,96242.00
2023-10-24T05:39:08.939Z,96243.00
2023-10-24T05:41:35.774Z,96248.00
2023-10-24T05:44:02.638Z,96242.00
2023-10-24T05:46:29.674Z,96241.00
2023-10-24T05:48:56.573Z,96233.00
2023-10-24T05:51:29.512Z,96221.00
2023-10-24T05:53:56.574Z,96232.00
2023-10-24T05:56:24.303Z,96229.00
2023-10-24T05:58:51.178Z,96216.00
2023-10-24T06:01:18.389Z,96222.00
2023-10-24T06:03:46.586Z,96223.00
2023-10-24T06:06:13.561Z,96230.00
2023-10-24T06:08:40.819Z,96239.00
2023-10-24T06:11:07.738Z,96227.00
2023-10-24T06:13:34.799Z,96205.00
2023-10-24T06:16:15.322Z,96202.00
2023-10-24T06:18:43.388Z,96204.00
2023-10-24T06:21:14.205Z,96201.00
2023-10-24T06:23:41.003Z,96212.00
2023-10-24T06:26:16.105Z,96227.00
2023-10-24T06:28:43.912Z,96233.00
2023-10-24T06:31:11.446Z,96228.00
2023-10-24T06:33:39.589Z,96221.00
2023-10-24T06:36:07.153Z,96229.00
2023-10-24T06:38:34.181Z,96219.00
2023-10-24T06:41:01.029Z,96210.00
2023-10-24T06:43:28.121Z,96213.00
2023-10-24T06:45:55.170Z,96201.00
2023-10-24T06:48:22.202Z,96203.00
2023-10-24T06:50:49.280Z,96197.00
2023-10-24T06:53:16.148Z,96190.00
2023-10-24T06:55:42.980Z,96189.00
2023-10-24T06:58:09.815Z,96192.00
2023-10-24T07:00:36.705Z,96179.00
2023-10-24T07:03:03.971Z,96171.00
2023-10-24T07:05:30.897Z,96173.00
2023-10-24T07:07:58.587Z,96175.00
2023-10-24T07:10:25.643Z,96196.00
2023-10-24T07:12:52.544Z,96192.00
2023-10-24T07:15:19.430Z,96180.00
2023-10-24T07:17:46.276Z,96162.00
2023-10-24T07:20:13.149Z,96160.00
2023-10-24T07:22:40.117Z,96161.00
2023-10-24T07:25:07.543Z,96151.00
2023-10-24T07:27:34.691Z,96160.00
2023-10-24T07:30:01.645Z,96154.00
2023-10-24T07:32:29.400Z,96161.00
2023-10-24T07:34:57.743Z,96158.00
2023-10-24T07:37:25.461Z,96148.00
2023-10-24T07:39:52.708Z,96150.00
2023-10-24T07:42:19.677Z,96152.00
2023-10-24T07:44:46.578Z,96157.00
2023-10-24T07:47:13.605Z,96165.00
2023-10-24T07:49:40.654Z,96169.00
2023-10-24T07:52:08.117Z,96166.00
2023-10-24T07:54:35.144Z,96152.00
2023-10-24T07:57:05.762Z,96151.00
2023-10-24T07:59:33.328Z,96146.00
2023-10-24T08:02:00.493Z,96157.00
2023-10-24T08:04:28.360Z,96161.00
2023-10-24T08:06:55.469Z,96165.00
2023-10-24T08:09:22.521Z,96174.00
2023-10-24T08:11:49.437Z,96163.00
2023-10-24T08:14:16.902Z,96163.00
2023-10-24T08:16:43.949Z,96157.00
2023-10-24T08:19:11.366Z,96138.00
2023-10-24T08:21:38.223Z,96130.00
2023-10-24T08:24:05.698Z,96133.00
2023-10-24T08:26:32.533Z,96128.00
2023-10-24T08:28:59.397Z,96124.00
2023-10-24T08:31:26.495Z,96119.00
2023-10-24T08:33:53.502Z,96129.00
2023-10-24T08:36:21.052Z,96130.00
2023-10-24T08:38:47.953Z,96126.00
2023-10-24T08:41:15.129Z,96117.00
2023-10-24T08:43:42.339Z,96118.00
2023-10-24T08:46:10.239Z,96115.00
2023-10-24T08:48:37.138Z,96115.00
2023-10-24T08:51:04.094Z,96112.00
2023-10-24T08:53:31.750Z,96098.00
2023-10-24T08:56:00.903Z,96102.00
2023-10-24T08:58:29.758Z,96085.00
2023-10-24T09:00:56.991Z,96090.00
2023-10-24T09:03:24.223Z,96079.00
2023-10-24T09:05:52.833Z,96082.00
2023-10-24T09:08:19.945Z,96089.00
2023-10-24T09:10:47.397Z,96086.00
2023-10-24T09:13:14.535Z,96080.00
2023-10-24T09:15:42.098Z,96086.00
2023-10-24T09:18:09.157Z,96086.00
2023-10-24T09:20:36.926Z,96088.00
2023-10-24T09:23:08.833Z,96094.00
2023-10-24T09:25:36.149Z,96104.00
2023-10-24T09:28:20.242Z,96100.00
2023-10-24T09:30:47.280Z,96090.00
2023-10-24T09:33:15.356Z,96099.00
2023-10-24T09:35:44.525Z,96103.00
2023-10-24T09:38:12.785Z,96091.00
2023-10-24T09:40:40.764Z,96104.00
2023-10-24T09:43:20.847Z,96104.00
2023-10-24T09:45:50.015Z,96105.00
2023-10-24T09:48:18.312Z,96099.00
2023-10-24T09:50:45.793Z,96094.00
2023-10-24T09:53:13.797Z,96093.00
2023-10-24T09:55:42.950Z,96087.00
2023-10-24T09:58:10.807Z,96094.00
2023-10-24T10:00:38.111Z,96083.00
2023-10-24T10:03:06.240Z,96088.00
2023-10-24T10:05:34.034Z,96090.00
2023-10-24T10:08:04.360Z,96083.00
2023-10-24T10:10:32.308Z,96073.00
2023-10-24T10:13:04.290Z,96082.00
2023-10-24T10:15:51.503Z,96064.00
2023-10-24T10:18:40.436Z,96065.00
2023-10-24T10:21:48.954Z,96052.00
2023-10-24T10:24:43.152Z,96047.00
2023-10-24T10:28:01.112Z,96047.00
2023-10-24T10:30:53.589Z,96048.00
2023-10-24T10:33:25.798Z,96055.00
2023-10-24T10:36:06.214Z,96046.00
2023-10-24T10:38:48.982Z,96034.00
2023-10-24T10:41:33.664Z,96021.00
2023-10-24T10:44:02.904Z,96029.00
2023-10-24T10:46:32.188Z,96014.00
2023-10-24T10:49:05.801Z,96010.00
2023-10-24T10:51:37.456Z,96004.00
2023-10-24T10:54:49.951Z,95982.00
2023-10-24T10:57:29.250Z,95973.00
2023-10-24T11:00:05.629Z,95967.00
2023-10-24T11:03:23.911Z,95973.00
2023-10-24T11:05:51.606Z,95977.00
2023-10-24T11:08:24.157Z,95978.00
2023-10-24T11:11:00.714Z,95963.00
2023-10-24T11:13:45.099Z,95949.00
2023-10-24T11:16:30.118Z,95956.00
2023-10-24T11:19:01.322Z,95937.00
2023-10-24T11:21:28.816Z,95930.00
2023-10-24T11:24:00.826Z,95940.00
2023-10-24T11:26:28.104Z,95935.00
2023-10-24T11:28:55.671Z,95924.00
2023-10-24T11:31:25.085Z,95922.00
2023-10-24T11:33:52.155Z,95925.00
2023-10-24T11:36:19.347Z,95914.00
2023-10-24T11:38:46.715Z,95920.00
2023-10-24T11:41:13.560Z,95924.00
2023-10-24T11:43:40.555Z,95926.00
2023-10-24T11:46:07.457Z,95920.00
2023-10-24T11:48:34.415Z,95924.00
2023-10-24T11:51:04.891Z,95920.00
2023-10-24T11:53:32.100Z,95918.00
2023-10-24T11:55:59.872Z,95924.00
2023-10-24T11:58:34.450Z,95918.00
2023-10-24T12:01:02.809Z,95916.00
2023-10-24T12:03:49.751Z,95910.00
2023-10-24T12:06:18.985Z,95909.00
2023-10-24T12:08:45.909Z,95904.00
2023-10-24T12:11:14.640Z,95900.00
2023-10-24T12:13:41.787Z,95908.00
2023-10-24T12:16:09.913Z,95894.00
2023-10-24T12:18:39.772Z,95896.00
2023-10-24T12:21:08.916Z,95894.00
2023-10-24T12:23:37.033Z,95891.00
2023-10-24T12:26:08.449Z,95899.00
2023-10-24T12:28:35.930Z,95893.00
2023-10-24T12:31:05.100Z,95902.00
2023-10-24T12:33:32.305Z,95898.00
2023-10-24T12:36:01.761Z,95896.00
2023-10-24T12:38:30.156Z,95898.00
2023-10-24T12:40:57.359Z,95904.00
2023-10-24T12:43:24.266Z,95904.00
2023-10-24T12:45:52.196Z,95883.00
2023-10-24T12:48:20.127Z,95886.00
2023-10-24T12:50:47.586Z,95881.00
2023-10-24T12:53:14.484Z,95878.00
2023-10-24T12:55:41.843Z,95872.00
2023-10-24T12:58:08.735Z,95868.00
2023-10-24T13:00:38.503Z,95865.00
2023-10-24T13:03:16.491Z,95853.00
2023-10-24T13:05:48.250Z,95850.00
2023-10-24T13:08:15.583Z,95835.00
2023-10-24T13:10:42.587Z,95836.00
2023-10-24T13:13:09.410Z,95829.00
2023-10-24T13:15:36.665Z,95824.00
2023-10-24T13:18:03.853Z,95820.00
2023-10-24T13:20:30.666Z,95813.00
2023-10-24T13:22:57.525Z,95806.00
2023-10-24T13:25:24.401Z,95805.00
2023-10-24T13:27:51.199Z,95793.00
2023-10-24T13:30:29.479Z,95793.00
2023-10-24T13:33:04.453Z,95798.00
2023-10-24T13:38:01.152Z,95791.00
2023-10-24T13:40:28.078Z,95786.00
2023-10-24T13:42:54.908Z,95790.00
2023-10-24T13:45:22.388Z,95797.00
2023-10-24T13:47:49.579Z,95793.00
2023-10-24T13:50:16.431Z,95788.00
2023-10-24T13:52:43.297Z,95784.00
2023-10-24T13:55:10.753Z,95778.00
2023-10-24T13:57:37.808Z,95776.00
2023-10-24T14:00:05.831Z,95784.00
2023-10-24T14:02:32.835Z,95775.00
2023-10-24T14:04:59.864Z,95773.00
2023-10-24T14:07:26.722Z,95769.00
2023-10-24T14:09:53.579Z,95766.00
2023-10-24T14:12:20.370Z,95753.00
2023-10-24T14:14:47.268Z,95761.00
2023-10-24T14:17:14.168Z,95761.00
2023-10-24T14:19:42.047Z,95748.00
2023-10-24T14:22:10.421Z,95754.00
2023-10-24T14:24:37.741Z,95743.00
2023-10-24T14:27:04.804Z,95741.00
2023-10-24T14:29:31.687Z,95741.00
2023-10-24T14:31:58.773Z,95736.00
2023-10-24T14:34:25.699Z,95734.00
2023-10-24T14:36:52.740Z,95741.00
2023-10-24T14:39:19.962Z,95750.00
2023-10-24T14:41:46.807Z,95767.00
2023-10-24T14:44:13.656Z,95781.00
2023-10-24T14:46:40.711Z,95788.00
2023-10-24T14:49:07.570Z,95786.00
2023-10-24T14:51:34.385Z,95780.00
2023-10-24T14:54:01.255Z,95780.00
2023-10-24T14:56:28.096Z,95768.00
2023-10-24T14:58:55.358Z,95766.00
2023-10-24T15:01:22.352Z,95755.00
2023-10-24T15:03:49.214Z,95754.00
2023-10-24T15:06:16.158Z,95769.00
2023-10-24T15:08:43.003Z,95768.00
2023-10-24T15:11:09.936Z,95774.00
2023-10-24T15:13:36.940Z,95777.00
2023-10-24T15:16:04.156Z,95781.00
2023-10-24T15:18:31.004Z,95776.00
2023-10-24T15:21:01.237Z,95778.00
2023-10-24T15:23:28.054Z,95773.00
2023-10-24T15:25:54.917Z,95760.00
2023-10-24T15:28:21.941Z,95760.00
2023-10-24T15:30:48.789Z,95762.00
2023-10-24T15:33:15.761Z,95748.00
2023-10-24T15:35:43.843Z,95761.00
2023-10-24T15:38:10.796Z,95751.00
2023-10-24T15:40:40.935Z,95746.00
2023-10-24T15:43:07.942Z,95750.00
2023-10-24T15:45:34.758Z,95752.00
2023-10-24T15:48:02.136Z,95755.00
2023-10-24T15:50:29.478Z,95751.00
2023-10-24T15:52:56.572Z,95754.00
2023-10-24T15:55:27.811Z,95762.00
2023-10-24T15:58:00.236Z,95755.00
2023-10-24T16:00:31.356Z,95750.00
2023-10-24T16:02:58.475Z,95754.00
2023-10-24T16:05:25.430Z,95746.00
2023-10-24T16:07:52.329Z,95754.00
2023-10-24T16:10:19.326Z,95771.00
2023-10-24T16:12:46.123Z,95775.00
2023-10-24T16:15:12.972Z,95773.00
2023-10-24T16:17:40.262Z,95780.00
2023-10-24T16:20:08.607Z,95789.00
2023-10-24T16:22:35.768Z,95789.00
2023-10-24T16:25:04.838Z,95783.00
2023-10-24T16:27:32.394Z,95783.00
2023-10-24T16:29:59.219Z,95776.00
2023-10-24T16:32:28.375Z,95756.00
2023-10-24T16:34:55.300Z,95754.00
2023-10-24T16:37:22.164Z,95762.00
2023-10-24T16:39:49.141Z,95782.00
2023-10-24T16:42:17.975Z,95792.00
2023-10-24T16:44:45.121Z,95798.00
2023-10-24T16:47:11.993Z,95802.00
2023-10-24T16:49:38.953Z,95798.00
2023-10-24T16:52:06.544Z,95797.00
2023-10-24T16:54:33.388Z,95799.00
2023-10-24T16:57:02.287Z,95792.00
2023-10-24T16:59:29.241Z,95793.00
2023-10-24T17:01:56.145Z,95786.00
2023-10-24T17:04:23.011Z,95797.00
2023-10-24T17:06:52.752Z,95795.00
2023-10-24T17:09:19.665Z,95812.00
2023-10-24T17:11:46.532Z,95812.00
2023-10-24T17:14:13.469Z,95810.00
2023-10-24T17:16:40.416Z,95801.00
2023-10-24T17:19:07.301Z,95806.00
2023-10-24T17:21:34.232Z,95804.00
2023-10-24T17:24:01.186Z,95797.00
2023-10-24T17:26:28.010Z,95791.00
2023-10-24T17:28:54.828Z,95800.00
2023-10-24T17:31:21.795Z,95790.00
2023-10-24T17:33:48.863Z,95799.00
2023-10-24T17:36:15.684Z,95802.00
2023-10-24T17:38:42.541Z,95798.00
2023-10-24T17:41:13.781Z,95798.00
2023-10-24T17:43:42.892Z,95807.00
2023-10-24T17:46:09.838Z,95804.00
2023-10-24T17:48:37.425Z,95789.00
2023-10-24T17:51:07.722Z,95789.00
2023-10-24T17:53:37.458Z,95789.00
2023-10-24T17:56:06.012Z,95790.00
2023-10-24T17:58:33.292Z,95789.00
2023-10-24T18:01:00.203Z,95774.00
2023-10-24T18:03:28.644Z,95760.00
2023-10-24T18:05:55.775Z,95761.00
2023-10-24T18:08:22.802Z,95768.00
2023-10-24T18:10:54.276Z,95788.00
2023-10-24T18:13:21.409Z,95803.00
2023-10-24T18:15:48.470Z,95805.00
2023-10-24T18:18:17.033Z,95794.00
2023-10-24T18:20:43.889Z,95800.00
2023-10-24T18:23:12.261Z,95800.00
2023-10-24T18:25:41.472Z,95795.00
2023-10-24T18:28:10.110Z,95807.00
2023-10-24T18:30:39.956Z,95795.00
2023-10-24T18:33:07.056Z,95788.00
2023-10-24T18:35:33.931Z,95790.00
2023-10-24T18:38:00.733Z,95786.00
2023-10-24T18:40:27.536Z,95782.00
2023-10-24T18:42:56.927Z,95781.00
2023-10-24T18:45:24.898Z,95782.00
2023-10-24T18:47:52.020Z,95784.00
2023-10-24T18:50:22.515Z,95791.00
2023-10-24T18:52:52.296Z,95788.00
2023-10-24T18:55:19.286Z,95785.00
2023-10-24T18:57:46.158Z,95781.00
2023-10-24T19:00:14.261Z,95786.00
2023-10-24T19:02:53.248Z,95792.00
2023-10-24T19:05:21.089Z,95791.00
2023-10-24T19:07:47.977Z,95792.00
2023-10-24T19:10:15.601Z,95797.00
2023-10-24T19:12:42.950Z,95796.00
2023-10-24T19:15:12.203Z,95812.00
2023-10-24T19:17:39.833Z,95813.00
2023-10-24T19:20:08.647Z,95807.00
2023-10-24T19:22:35.805Z,95814.00
2023-10-24T19:25:04.692Z,95812.00
2023-10-24T19:27:32.070Z,95821.00
2023-10-24T19:29:59.296Z,95821.00
2023-10-24T19:32:31.571Z,95835.00
2023-10-24T19:34:59.689Z,95832.00
2023-10-24T19:37:30.356Z,95843.00
2023-10-24T19:39:57.774Z,95832.00
2023-10-24T19:42:26.716Z,95824.00
2023-10-24T19:44:54.158Z,95833.00
2023-10-24T19:47:24.727Z,95826.00
2023-10-24T19:49:53.336Z,95834.00
2023-10-24T19:52:23.142Z,95832.00
2023-10-24T19:54:51.893Z,95839.00
2023-10-24T19:57:18.990Z,95834.00
2023-10-24T19:59:46.331Z,95832.00
2023-10-24T20:02:13.528Z,95817.00
2023-10-24T20:04:48.010Z,95824.00
2023-10-24T20:07:20.482Z,95820.00
2023-10-24T20:11:06.957Z,95818.00
2023-10-24T20:12:44.070Z,95817.00
2023-10-24T20:15:12.817Z,95811.00
2023-10-24T20:17:44.424Z,95813.00
2023-10-24T20:20:13.662Z,95817.00
2023-10-24T20:22:41.270Z,95808.00
2023-10-24T20:25:09.522Z,95818.00
2023-10-24T20:27:38.608Z,95815.00
2023-10-24T20:30:08.066Z,95823.00
2023-10-24T20:32:36.209Z,95826.00
2023-10-24T20:35:06.306Z,95819.00
2023-10-24T20:37:33.327Z,95822.00
2023-10-24T20:40:00.353Z,95823.00
2023-10-24T20:42:27.519Z,95820.00
2023-10-24T20:44:56.170Z,95824.00
2023-10-24T20:47:23.444Z,95820.00
2023-10-24T20:49:50.549Z,95817.00
2023-10-24T20:52:17.438Z,95823.00
2023-10-24T20:54:44.586Z,95813.00
2023-10-24T20:57:11.655Z,95821.00
2023-10-24T20:59:38.514Z,95829.00
2023-10-24T21:02:08.781Z,95833.00
2023-10-24T21:04:40.269Z,95842.00
2023-10-24T21:07:07.204Z,95844.00
2023-10-24T21:09:34.834Z,95852.00
2023-10-24T21:12:05.867Z,95853.00
2023-10-24T21:14:33.118Z,95855.00
2023-10-24T21:17:00.159Z,95847.00
2023-10-24T21:19:27.704Z,95855.00
2023-10-24T21:21:54.678Z,95851.00
2023-10-24T21:24:21.537Z,95850.00
2023-10-24T21:26:48.400Z,95861.00
2023-10-24T21:29:15.250Z,95857.00
2023-10-24T21:31:42.796Z,95851.00
2023-10-24T21:34:09.740Z,95842.00
2023-10-24T21:36:36.637Z,95843.00
2023-10-24T21:39:06.330Z,95842.00
2023-10-24T21:41:33.443Z,95834.00
2023-10-24T21:44:00.251Z,95834.00
2023-10-24T21:46:27.217Z,95840.00
2023-10-24T21:48:54.327Z,95837.00
2023-10-24T21:51:22.593Z,95829.00
2023-10-24T21:53:51.583Z,95828.00
2023-10-24T21:56:20.194Z,95830.00
2023-10-24T21:58:47.741Z,95827.00
2023-10-24T22:01:16.295Z,95826.00
2023-10-24T22:03:46.310Z,95830.00
2023-10-24T22:06:13.508Z,95823.00
2023-10-24T22:08:40.456Z,95819.00
2023-10-24T22:11:07.655Z,95817.00
2023-10-24T22:13:34.589Z,95822.00
2023-10-24T22:16:01.868Z,95816.00
2023-10-24T22:18:29.686Z,95825.00
2023-10-24T22:20:57.403Z,95824.00
2023-10-24T22:23:24.572Z,95819.00
2023-10-24T22:25:54.686Z,95825.00
2023-10-24T22:28:21.990Z,95831.00
2023-10-24T22:30:49.232Z,95832.00
2023-10-24T22:33:16.167Z,95826.00
2023-10-24T22:35:43.327Z,95820.00
2023-10-24T22:38:10.263Z,95827.00
2023-10-24T22:40:37.261Z,95830.00
2023-10-24T22:43:04.263Z,95834.00
2023-10-24T22:45:31.349Z,95835.00
2023-10-24T22:47:58.759Z,95831.00
2023-10-24T22:50:26.571Z,95845.00
2023-10-24T22:52:53.639Z,95841.00
2023-10-24T22:55:20.865Z,95843.00
2023-10-24T22:57:47.853Z,95847.00
2023-10-24T23:00:15.481Z,95843.00
2023-10-24T23:02:42.461Z,95846.00
2023-10-24T23:05:09.538Z,95840.00
2023-10-24T23:07:37.006Z,95843.00
2023-10-24T23:10:06.337Z,95845.00
2023-10-24T23:12:34.239Z,95851.00
2023-10-24T23:15:02.940Z,95859.00
2023-10-24T23:17:31.002Z,95844.00
2023-10-24T23:19:58.240Z,95858.00
2023-10-24T23:22:28.189Z,95850.00
2023-10-24T23:24:56.798Z,95850.00
2023-10-24T23:27:25.253Z,95853.00
2023-10-24T23:29:52.435Z,95862.00
2023-10-24T23:32:19.791Z,95864.00
2023-10-24T23:34:46.656Z,95859.00
2023-10-24T23:37:13.545Z,95866.00
2023-10-24T23:39:40.837Z,95859.00
2023-10-24T23:42:08.070Z,95868.00
2023-10-24T23:44:35.333Z,95873.00
2023-10-24T23:47:02.224Z,95868.00
2023-10-24T23:49:29.112Z,95872.00
2023-10-24T23:51:55.985Z,95859.00
2023-10-24T23:54:22.855Z,95851.00
2023-10-24T23:56:49.732Z,95854.00
2023-10-24T23:59:16.600Z,95858.00
